Time;durP1;ratioP1;P1;durP2;ratioP2;P2;SDS_P1;SDS_P2;PMS_P1;PMS_P2;Temp;Humidity;BMP_temperature;BMP_pressure;BME280_temperature;BME280_humidity;BME280_pressure;Samples;Min_cycle;Max_cycle;Signal;HPM_P1;HPM_P2
2021/05/16 00:00:31;;;;;;;4.03;2.35;;;9.70;99.90;;;;;;3560719;40;20030;-59
2021/05/16 00:02:57;;;;;;;3.35;1.95;;;9.70;99.90;;;;;;3560665;40;20395;-59
2021/05/16 00:05:26;;;;;;;3.85;2.20;;;9.60;99.90;;;;;;3560543;40;20099;-59
2021/05/16 00:07:52;;;;;;;2.13;1.67;;;9.50;99.90;;;;;;3560824;40;20037;-59
2021/05/16 00:10:20;;;;;;;5.05;2.20;;;9.50;99.90;;;;;;3560243;40;20037;-59
2021/05/16 00:12:47;;;;;;;3.97;2.10;;;9.40;99.90;;;;;;3559481;40;20053;-59
2021/05/16 00:15:16;;;;;;;5.85;2.10;;;9.60;99.90;;;;;;3559724;40;20037;-59
2021/05/16 00:17:42;;;;;;;3.50;2.25;;;9.50;99.90;;;;;;3559641;40;20037;-59
2021/05/16 00:20:15;;;;;;;2.38;1.70;;;9.50;99.90;;;;;;3558313;40;20034;-59
2021/05/16 00:22:41;;;;;;;4.45;2.30;;;9.50;99.90;;;;;;3559670;40;20130;-59
2021/05/16 00:25:10;;;;;;;3.92;2.40;;;9.40;99.90;;;;;;3559387;40;20128;-60
2021/05/16 00:27:37;;;;;;;2.60;1.88;;;9.30;99.90;;;;;;3557712;40;20042;-60
2021/05/16 00:30:22;;;;;;;3.58;2.00;;;9.30;99.90;;;;;;3559030;40;20037;-59
2021/05/16 00:32:49;;;;;;;4.70;2.00;;;9.30;99.90;;;;;;3558834;40;20730;-59
2021/05/16 00:35:17;;;;;;;2.70;2.33;;;9.30;99.90;;;;;;3558949;40;20052;-59
2021/05/16 00:37:43;;;;;;;3.20;1.98;;;9.40;99.90;;;;;;3559018;40;20049;-60
2021/05/16 00:40:09;;;;;;;4.30;2.03;;;9.40;99.90;;;;;;3558838;40;20046;-60
2021/05/16 00:42:35;;;;;;;3.03;1.92;;;9.40;99.90;;;;;;3558769;40;20042;-60
2021/05/16 00:45:22;;;;;;;4.00;2.10;;;9.40;99.90;;;;;;3558850;40;20045;-60
2021/05/16 00:48:00;;;;;;;3.40;2.05;;;9.40;99.90;;;;;;3559167;40;20069;-68
2021/05/16 00:50:29;;;;;;;3.10;2.13;;;9.20;99.90;;;;;;3559864;40;20045;-68
2021/05/16 00:52:55;;;;;;;3.80;2.05;;;9.20;99.90;;;;;;3558917;40;20041;-68
2021/05/16 00:55:22;;;;;;;5.05;2.00;;;9.20;99.90;;;;;;3550137;40;20074;-69
2021/05/16 00:57:48;;;;;;;3.10;2.00;;;9.20;99.90;;;;;;3560160;40;20324;-68
2021/05/16 01:00:22;;;;;;;2.75;1.90;;;9.20;99.90;;;;;;3559858;40;20049;-68
2021/05/16 01:02:49;;;;;;;2.67;2.05;;;9.20;99.90;;;;;;3559898;40;20048;-68
2021/05/16 01:05:19;;;;;;;3.38;1.83;;;9.20;99.90;;;;;;3558492;40;20040;-68
2021/05/16 01:07:47;;;;;;;4.72;1.90;;;9.20;99.90;;;;;;3560521;40;20033;-68
2021/05/16 01:10:13;;;;;;;2.17;1.70;;;9.20;99.90;;;;;;3559284;40;20038;-68
2021/05/16 01:12:42;;;;;;;3.47;2.05;;;9.10;99.90;;;;;;3560281;40;20033;-67
2021/05/16 01:15:14;;;;;;;2.70;1.95;;;9.20;99.90;;;;;;3560238;40;20026;-67
2021/05/16 01:17:42;;;;;;;3.53;2.20;;;9.10;99.90;;;;;;3559693;40;20041;-68
2021/05/16 01:20:11;;;;;;;4.65;2.00;;;9.10;99.90;;;;;;3560147;40;20308;-67
2021/05/16 01:22:41;;;;;;;2.88;2.00;;;9.10;99.90;;;;;;3560115;40;20696;-68
2021/05/16 01:25:09;;;;;;;2.88;1.90;;;9.10;99.90;;;;;;3558953;40;20048;-68
2021/05/16 01:27:35;;;;;;;2.70;1.88;;;9.00;99.90;;;;;;3559825;40;20851;-68
2021/05/16 01:30:03;;;;;;;4.32;2.10;;;8.90;99.90;;;;;;3561057;40;20789;-68
2021/05/16 01:32:29;;;;;;;6.30;2.25;;;8.80;99.90;;;;;;3559204;40;20045;-68
2021/05/16 01:34:55;;;;;;;3.15;1.88;;;8.80;99.90;;;;;;3560623;40;20049;-68
2021/05/16 01:37:21;;;;;;;3.88;1.88;;;8.60;99.90;;;;;;3559036;40;20269;-68
2021/05/16 01:39:48;;;;;;;5.88;2.25;;;8.50;99.90;;;;;;3560463;40;20028;-68
2021/05/16 01:42:16;;;;;;;4.85;2.08;;;8.50;99.90;;;;;;3560854;40;20038;-68
2021/05/16 01:44:43;;;;;;;2.90;1.90;;;8.40;99.90;;;;;;3559108;40;20033;-68
2021/05/16 01:47:08;;;;;;;4.82;2.20;;;8.40;99.90;;;;;;3560673;40;20328;-68
2021/05/16 01:49:43;;;;;;;2.85;2.55;;;8.40;99.90;;;;;;3560698;40;20029;-68
2021/05/16 01:52:10;;;;;;;3.90;2.33;;;8.40;99.90;;;;;;3560113;40;20041;-68
2021/05/16 01:54:36;;;;;;;3.58;2.13;;;8.40;99.90;;;;;;3560657;40;20681;-69
2021/05/16 01:57:05;;;;;;;2.45;2.00;;;8.30;99.90;;;;;;3560545;40;20054;-68
2021/05/16 01:59:33;;;;;;;3.35;2.35;;;8.20;99.90;;;;;;3560647;40;20541;-68
2021/05/16 02:02:00;;;;;;;5.72;1.90;;;8.20;99.90;;;;;;3558933;40;20044;-68
2021/05/16 02:04:30;;;;;;;3.83;2.25;;;8.10;99.90;;;;;;3558493;40;20041;-68
2021/05/16 02:06:56;;;;;;;5.30;1.92;;;8.00;99.90;;;;;;3557060;40;20312;-68
2021/05/16 02:09:23;;;;;;;3.60;2.53;;;8.00;99.90;;;;;;3559047;40;20068;-68
2021/05/16 02:11:50;;;;;;;3.60;2.10;;;8.00;99.90;;;;;;3559413;40;20041;-68
2021/05/16 02:14:24;;;;;;;3.17;2.30;;;8.00;99.90;;;;;;3558414;40;20123;-68
2021/05/16 02:16:50;;;;;;;3.22;2.40;;;8.00;99.90;;;;;;3559967;40;20057;-68
2021/05/16 02:19:16;;;;;;;3.30;2.35;;;8.00;99.90;;;;;;3560856;40;20399;-68
2021/05/16 02:21:43;;;;;;;3.53;2.33;;;8.10;99.90;;;;;;3560658;40;20041;-67
2021/05/16 02:24:09;;;;;;;3.47;2.35;;;8.10;99.90;;;;;;3560234;40;20047;-67
2021/05/16 02:26:59;;;;;;;4.47;2.40;;;8.10;99.90;;;;;;3559507;40;20067;-67
2021/05/16 02:29:28;;;;;;;5.25;2.40;;;8.10;99.90;;;;;;3557655;40;20119;-67
2021/05/16 02:31:55;;;;;;;3.95;3.10;;;8.00;99.90;;;;;;3550365;40;20786;-67
2021/05/16 02:34:21;;;;;;;3.38;2.28;;;8.00;99.90;;;;;;3561003;40;20022;-68
2021/05/16 02:36:47;;;;;;;6.65;2.70;;;8.00;99.90;;;;;;3558896;40;20315;-67
2021/05/16 02:39:13;;;;;;;4.28;2.40;;;8.10;99.90;;;;;;3559898;40;20219;-67
2021/05/16 02:41:42;;;;;;;4.43;3.10;;;8.10;99.90;;;;;;3559295;40;20626;-67
2021/05/16 02:44:08;;;;;;;3.35;2.67;;;8.10;99.90;;;;;;3560214;40;20040;-68
2021/05/16 02:46:35;;;;;;;6.38;2.70;;;8.20;99.90;;;;;;3559714;40;20042;-67
2021/05/16 02:49:01;;;;;;;5.50;3.53;;;8.20;99.90;;;;;;3560096;40;20114;-68
2021/05/16 02:51:26;;;;;;;5.47;2.80;;;8.30;99.90;;;;;;3558747;40;20038;-68
2021/05/16 02:53:53;;;;;;;4.40;2.75;;;8.30;99.90;;;;;;3559989;40;20033;-68
2021/05/16 02:56:19;;;;;;;7.97;2.58;;;8.20;99.90;;;;;;3559733;40;20296;-68
2021/05/16 02:58:45;;;;;;;2.90;2.47;;;8.30;99.90;;;;;;3558875;40;20057;-68
2021/05/16 03:01:11;;;;;;;4.75;2.70;;;8.20;99.90;;;;;;3560288;40;20048;-68
2021/05/16 03:03:41;;;;;;;5.53;2.90;;;8.20;99.90;;;;;;3560048;40;20033;-67
2021/05/16 03:06:09;;;;;;;3.00;2.58;;;8.20;99.90;;;;;;3560323;40;20608;-68
2021/05/16 03:08:36;;;;;;;4.60;2.95;;;8.20;99.90;;;;;;3558792;40;20127;-68
2021/05/16 03:11:02;;;;;;;4.40;2.80;;;8.30;99.90;;;;;;3561136;40;20053;-68
2021/05/16 03:13:28;;;;;;;5.63;2.78;;;8.30;99.90;;;;;;3550378;40;20045;-68
2021/05/16 03:15:55;;;;;;;3.33;2.75;;;8.40;99.90;;;;;;3558736;40;20064;-68
2021/05/16 03:18:23;;;;;;;3.40;2.58;;;8.40;99.90;;;;;;3560014;40;20827;-67
2021/05/16 03:20:50;;;;;;;3.55;2.50;;;8.50;99.90;;;;;;3560529;40;20045;-67
2021/05/16 03:23:17;;;;;;;6.75;2.78;;;8.50;99.90;;;;;;3558692;40;20045;-67
2021/05/16 03:25:44;;;;;;;4.82;2.30;;;8.60;99.90;;;;;;3558870;40;20044;-68
2021/05/16 03:28:11;;;;;;;3.35;2.30;;;8.70;99.90;;;;;;3560339;40;20044;-68
2021/05/16 03:30:37;;;;;;;4.55;2.72;;;8.80;99.90;;;;;;3559901;40;20053;-68
2021/05/16 03:33:02;;;;;;;2.78;2.40;;;8.80;99.90;;;;;;3561701;40;20134;-68
2021/05/16 03:35:28;;;;;;;8.48;2.80;;;8.90;99.90;;;;;;3560248;40;20811;-68
2021/05/16 03:37:54;;;;;;;2.95;2.22;;;8.90;99.90;;;;;;3559951;40;20033;-68
2021/05/16 03:40:20;;;;;;;2.47;2.20;;;9.00;99.90;;;;;;3560789;40;20045;-68
2021/05/16 03:42:46;;;;;;;3.05;2.30;;;9.00;99.90;;;;;;3559783;40;20073;-67
2021/05/16 03:45:13;;;;;;;3.80;2.42;;;9.10;99.90;;;;;;3560005;40;20037;-67
2021/05/16 03:47:39;;;;;;;3.10;2.10;;;9.20;99.90;;;;;;3560283;40;20494;-67
2021/05/16 03:50:08;;;;;;;3.35;2.70;;;9.30;99.90;;;;;;3559580;40;20037;-68
2021/05/16 03:52:34;;;;;;;3.42;2.38;;;9.30;99.90;;;;;;3558456;40;20041;-68
2021/05/16 03:55:00;;;;;;;3.33;2.40;;;9.40;99.90;;;;;;3559790;40;20097;-68
2021/05/16 03:57:26;;;;;;;3.03;2.42;;;9.40;99.90;;;;;;3559960;40;20034;-68
2021/05/16 03:59:52;;;;;;;4.13;2.53;;;9.50;99.90;;;;;;3559693;40;20141;-68
2021/05/16 04:02:18;;;;;;;3.35;2.47;;;9.50;99.90;;;;;;3561803;40;20030;-68
2021/05/16 04:04:43;;;;;;;2.25;1.92;;;9.60;99.90;;;;;;3559892;40;20167;-68
2021/05/16 04:07:09;;;;;;;2.80;2.30;;;9.60;99.90;;;;;;3559741;40;20047;-68
2021/05/16 04:09:35;;;;;;;3.58;2.17;;;9.80;99.90;;;;;;3561177;40;20033;-68
2021/05/16 04:12:01;;;;;;;2.85;2.10;;;9.90;99.90;;;;;;3561751;40;20034;-68
2021/05/16 04:14:27;;;;;;;5.13;2.15;;;10.10;99.90;;;;;;3560476;40;20300;-68
2021/05/16 04:16:54;;;;;;;2.35;2.00;;;10.10;99.90;;;;;;3560305;40;20138;-68
2021/05/16 04:19:19;;;;;;;4.95;1.90;;;10.30;99.90;;;;;;3560625;40;20070;-68
2021/05/16 04:21:45;;;;;;;5.63;1.88;;;10.30;99.90;;;;;;3560692;40;20665;-68
2021/05/16 04:24:11;;;;;;;2.50;2.10;;;10.30;99.90;;;;;;3560187;40;20108;-68
2021/05/16 04:26:37;;;;;;;3.78;2.17;;;10.30;99.90;;;;;;3562025;40;20587;-67
2021/05/16 04:29:03;;;;;;;4.57;2.20;;;10.20;99.90;;;;;;3560066;40;20044;-68
2021/05/16 04:31:30;;;;;;;4.93;2.95;;;10.20;99.90;;;;;;3561084;40;20176;-68
2021/05/16 04:33:55;;;;;;;7.35;3.15;;;10.30;99.90;;;;;;3559842;40;20701;-68
2021/05/16 04:36:21;;;;;;;6.05;3.00;;;10.50;99.90;;;;;;3558602;40;20040;-68
2021/05/16 04:38:48;;;;;;;6.85;3.55;;;10.60;99.90;;;;;;3557849;40;20048;-68
2021/05/16 04:41:15;;;;;;;7.05;2.55;;;10.70;99.90;;;;;;3559073;40;20040;-68
2021/05/16 04:43:41;;;;;;;5.75;2.38;;;10.60;99.90;;;;;;3560768;40;20497;-68
2021/05/16 04:46:07;;;;;;;5.30;2.60;;;10.60;99.90;;;;;;3559118;40;20030;-68
2021/05/16 04:48:33;;;;;;;3.70;2.47;;;10.50;99.90;;;;;;3558926;40;20380;-69
2021/05/16 04:50:58;;;;;;;3.35;2.40;;;10.60;99.90;;;;;;3558776;40;20048;-68
2021/05/16 04:53:27;;;;;;;4.30;2.60;;;10.50;99.90;;;;;;3559514;40;20111;-67
2021/05/16 04:55:53;;;;;;;3.72;2.45;;;10.60;99.90;;;;;;3558070;40;20030;-67
2021/05/16 04:58:19;;;;;;;3.58;2.42;;;10.70;99.90;;;;;;3559279;40;20310;-68
2021/05/16 05:00:45;;;;;;;4.47;2.22;;;10.80;99.90;;;;;;3559584;40;20042;-68
2021/05/16 05:03:11;;;;;;;2.47;1.83;;;10.50;99.90;;;;;;3561499;40;20058;-68
2021/05/16 05:05:36;;;;;;;5.78;2.60;;;11.00;99.90;;;;;;3560118;40;20084;-68
2021/05/16 05:08:02;;;;;;;4.53;2.05;;;11.00;99.90;;;;;;3560111;40;20532;-68
2021/05/16 05:10:28;;;;;;;3.50;2.40;;;11.20;99.90;;;;;;3560175;40;20068;-68
2021/05/16 05:12:53;;;;;;;4.05;2.20;;;11.30;99.90;;;;;;3560790;40;20323;-68
2021/05/16 05:15:19;;;;;;;2.85;2.20;;;11.40;99.90;;;;;;3559939;40;20384;-68
2021/05/16 05:17:45;;;;;;;6.57;2.60;;;11.50;99.90;;;;;;3560496;40;20048;-68
2021/05/16 05:20:11;;;;;;;4.00;2.10;;;11.60;99.90;;;;;;3560071;40;20390;-59
2021/05/16 05:22:37;;;;;;;3.22;1.88;;;11.80;99.90;;;;;;3561969;40;20030;-59
2021/05/16 05:25:04;;;;;;;3.97;2.00;;;11.90;99.90;;;;;;3561314;40;20083;-60
2021/05/16 05:27:29;;;;;;;3.10;1.85;;;12.10;99.90;;;;;;3559652;40;20045;-60
2021/05/16 05:29:55;;;;;;;2.97;2.20;;;12.20;99.90;;;;;;3559824;40;20042;-59
2021/05/16 05:32:21;;;;;;;2.65;1.70;;;12.20;99.90;;;;;;3561300;40;20057;-60
2021/05/16 05:34:47;;;;;;;3.28;1.98;;;12.30;99.90;;;;;;3560848;40;20497;-59
2021/05/16 05:37:12;;;;;;;3.50;1.75;;;12.30;99.90;;;;;;3562629;40;20506;-60
2021/05/16 05:39:38;;;;;;;2.95;1.65;;;12.40;99.90;;;;;;3560449;40;20075;-59
2021/05/16 05:42:04;;;;;;;2.25;1.65;;;12.50;99.90;;;;;;3563374;40;20127;-60
2021/05/16 05:44:31;;;;;;;2.67;1.77;;;12.60;99.90;;;;;;3563410;40;20041;-60
2021/05/16 05:46:57;;;;;;;3.97;1.90;;;12.70;99.90;;;;;;3563088;40;20035;-60
2021/05/16 05:49:23;;;;;;;2.17;1.77;;;12.80;99.90;;;;;;3561189;40;20315;-60
2021/05/16 05:51:49;;;;;;;2.75;1.98;;;12.80;99.90;;;;;;3561438;40;20034;-60
2021/05/16 05:54:15;;;;;;;4.25;1.70;;;12.80;99.90;;;;;;3561303;40;20527;-60
2021/05/16 05:56:40;;;;;;;3.25;1.80;;;12.80;99.90;;;;;;3561150;40;20077;-59
2021/05/16 05:59:06;;;;;;;2.35;1.75;;;12.80;99.90;;;;;;3560649;40;20046;-60
2021/05/16 06:01:32;;;;;;;3.50;1.70;;;12.80;99.90;;;;;;3560782;40;20074;-60
2021/05/16 06:03:58;;;;;;;3.45;1.58;;;13.00;99.90;;;;;;3564087;40;20033;-60
2021/05/16 06:06:23;;;;;;;5.97;1.80;;;13.10;99.90;;;;;;3562611;40;20093;-59
2021/05/16 06:08:49;;;;;;;2.03;1.20;;;13.20;99.90;;;;;;3562957;40;20129;-60
2021/05/16 06:11:15;;;;;;;2.55;1.60;;;13.20;99.90;;;;;;3561473;40;20054;-60
2021/05/16 06:13:41;;;;;;;5.88;2.25;;;13.40;99.90;;;;;;3561682;40;20040;-60
2021/05/16 06:16:06;;;;;;;1.70;1.40;;;13.40;99.90;;;;;;3562202;40;20044;-60
2021/05/16 06:18:32;;;;;;;1.85;1.23;;;13.40;99.90;;;;;;3562109;40;20074;-60
2021/05/16 06:20:58;;;;;;;2.80;1.48;;;13.40;99.90;;;;;;3564319;40;20075;-60
2021/05/16 06:23:32;;;;;;;2.20;1.20;;;13.30;99.90;;;;;;3563090;40;20033;-60
2021/05/16 06:25:58;;;;;;;8.57;3.15;;;13.30;99.90;;;;;;3561388;40;20045;-60
2021/05/16 06:28:24;;;;;;;3.95;2.50;;;13.40;99.90;;;;;;3559758;40;20041;-60
2021/05/16 06:30:49;;;;;;;2.63;1.30;;;13.40;99.90;;;;;;3559618;40;20371;-60
2021/05/16 06:33:15;;;;;;;1.55;1.13;;;13.20;99.90;;;;;;3561128;40;20146;-59
2021/05/16 06:35:41;;;;;;;2.78;1.40;;;13.20;99.90;;;;;;3559678;40;20056;-59
2021/05/16 06:38:07;;;;;;;3.47;1.42;;;13.20;99.90;;;;;;3559927;40;20057;-59
2021/05/16 06:40:34;;;;;;;3.58;1.27;;;13.10;99.90;;;;;;3560267;40;20134;-59
2021/05/16 06:43:02;;;;;;;4.45;1.40;;;12.90;99.90;;;;;;3560166;40;20416;-61
2021/05/16 06:45:28;;;;;;;6.13;1.13;;;12.80;99.90;;;;;;3560445;40;20119;-60
2021/05/16 06:47:53;;;;;;;1.83;1.20;;;12.80;99.90;;;;;;3562367;40;20034;-59
2021/05/16 06:50:19;;;;;;;4.40;1.73;;;12.70;99.90;;;;;;3561246;40;20033;-60
2021/05/16 06:52:45;;;;;;;4.63;1.30;;;12.60;99.90;;;;;;3558936;40;20045;-60
2021/05/16 06:55:11;;;;;;;2.38;1.42;;;12.50;99.90;;;;;;3560377;40;20049;-59
2021/05/16 06:57:39;;;;;;;3.78;1.98;;;12.40;99.90;;;;;;3559870;40;20034;-60
2021/05/16 07:00:05;;;;;;;3.03;1.20;;;12.50;99.90;;;;;;3561503;40;20044;-61
2021/05/16 07:02:31;;;;;;;2.47;1.85;;;12.50;99.90;;;;;;3560246;40;20045;-59
2021/05/16 07:04:57;;;;;;;4.38;2.10;;;12.80;99.90;;;;;;3560447;40;20064;-60
2021/05/16 07:07:23;;;;;;;3.50;1.42;;;12.90;99.90;;;;;;3560500;40;20041;-60
2021/05/16 07:09:49;;;;;;;1.58;1.38;;;13.00;99.90;;;;;;3560915;40;20089;-60
2021/05/16 07:12:15;;;;;;;1.35;1.10;;;12.90;99.90;;;;;;3561364;40;20038;-59
2021/05/16 07:14:40;;;;;;;1.35;1.10;;;13.10;99.90;;;;;;3562808;40;20416;-59
2021/05/16 07:17:06;;;;;;;0.85;0.85;;;13.00;99.90;;;;;;3561526;40;20049;-59
2021/05/16 07:19:33;;;;;;;1.70;1.17;;;13.00;99.90;;;;;;3562686;40;20287;-59
2021/05/16 07:21:59;;;;;;;1.65;1.20;;;13.20;99.90;;;;;;3560009;40;20041;-59
2021/05/16 07:24:24;;;;;;;1.67;1.10;;;13.50;99.90;;;;;;3560854;40;20395;-59
2021/05/16 07:26:50;;;;;;;1.73;1.13;;;13.80;99.90;;;;;;3550295;40;20141;-59
2021/05/16 07:29:17;;;;;;;3.00;1.30;;;13.90;99.90;;;;;;3562131;40;20061;-59
2021/05/16 07:31:43;;;;;;;1.13;1.00;;;13.80;99.90;;;;;;3561077;40;20029;-59
2021/05/16 07:34:09;;;;;;;3.25;1.50;;;13.70;99.90;;;;;;3561433;40;20400;-59
2021/05/16 07:36:34;;;;;;;3.50;1.20;;;13.80;99.90;;;;;;3562933;40;20510;-59
2021/05/16 07:39:00;;;;;;;3.65;1.48;;;14.10;99.90;;;;;;3560261;40;20038;-59
2021/05/16 07:41:26;;;;;;;2.13;1.55;;;14.50;99.90;;;;;;3561773;40;20060;-59
2021/05/16 07:43:52;;;;;;;3.15;1.58;;;14.80;99.90;;;;;;3562187;40;20065;-59
2021/05/16 07:46:18;;;;;;;2.90;1.50;;;14.60;99.90;;;;;;3561742;40;20036;-59
2021/05/16 07:48:46;;;;;;;3.47;2.33;;;14.20;99.90;;;;;;3565432;40;20038;-59
2021/05/16 07:51:12;;;;;;;16.55;7.57;;;13.90;99.90;;;;;;3550924;40;20346;-59
2021/05/16 07:53:38;;;;;;;4.32;2.40;;;13.80;99.90;;;;;;3560466;40;20121;-59
2021/05/16 07:56:04;;;;;;;4.50;1.95;;;13.40;99.90;;;;;;3560457;40;20071;-59
2021/05/16 07:58:30;;;;;;;4.55;1.95;;;13.20;99.90;;;;;;3558864;40;20060;-59
2021/05/16 08:00:56;;;;;;;4.85;1.80;;;13.00;99.90;;;;;;3560017;40;20782;-59
2021/05/16 08:03:22;;;;;;;2.28;1.80;;;13.10;99.90;;;;;;3559470;40;20486;-59
2021/05/16 08:05:48;;;;;;;4.28;2.42;;;13.20;99.90;;;;;;3561052;40;20041;-59
2021/05/16 08:08:13;;;;;;;48.05;25.23;;;13.30;99.90;;;;;;3562089;40;20029;-59
2021/05/16 08:10:40;;;;;;;43.05;23.05;;;13.60;99.90;;;;;;3559987;40;20060;-59
2021/05/16 08:13:06;;;;;;;12.40;7.28;;;13.90;99.90;;;;;;3561730;40;20170;-58
2021/05/16 08:15:33;;;;;;;10.13;6.22;;;13.90;99.90;;;;;;3559865;40;20058;-59
2021/05/16 08:17:59;;;;;;;8.13;3.08;;;14.10;99.90;;;;;;3561611;40;20033;-59
2021/05/16 08:20:25;;;;;;;6.85;1.60;;;14.20;99.90;;;;;;3560011;40;20036;-59
2021/05/16 08:22:51;;;;;;;2.58;1.23;;;14.30;99.90;;;;;;3559244;40;20025;-59
2021/05/16 08:25:16;;;;;;;11.65;6.72;;;14.40;99.90;;;;;;3560875;40;20041;-59
2021/05/16 08:27:42;;;;;;;5.07;3.00;;;14.50;99.90;;;;;;3560557;40;20041;-59
2021/05/16 08:30:10;;;;;;;4.10;1.27;;;14.70;99.90;;;;;;3558855;40;20685;-59
2021/05/16 08:32:35;;;;;;;2.63;1.00;;;14.90;99.90;;;;;;3557907;40;20037;-59
2021/05/16 08:35:02;;;;;;;8.52;2.80;;;15.30;99.90;;;;;;3551264;40;20435;-59
2021/05/16 08:37:28;;;;;;;2.70;1.20;;;15.50;99.90;;;;;;3559583;40;20037;-59
2021/05/16 08:39:53;;;;;;;6.75;1.30;;;15.70;99.90;;;;;;3559566;40;20125;-59
2021/05/16 08:42:20;;;;;;;6.72;2.20;;;15.70;99.90;;;;;;3559651;40;20580;-59
2021/05/16 08:44:46;;;;;;;9.60;2.38;;;16.00;99.90;;;;;;3558700;40;20042;-59
2021/05/16 08:47:14;;;;;;;10.07;1.58;;;16.40;99.90;;;;;;3558583;40;20053;-59
2021/05/16 08:49:40;;;;;;;18.15;9.23;;;16.80;99.90;;;;;;3561158;40;20048;-68
2021/05/16 08:52:06;;;;;;;8.60;2.75;;;17.00;99.90;;;;;;3559488;40;20357;-68
2021/05/16 08:54:32;;;;;;;15.73;6.10;;;17.40;99.90;;;;;;3559709;40;20048;-67
2021/05/16 08:56:59;;;;;;;16.08;6.00;;;17.70;99.90;;;;;;3559531;40;20041;-68
2021/05/16 08:59:26;;;;;;;6.82;2.40;;;18.20;99.50;;;;;;3559327;40;20053;-68
2021/05/16 09:02:01;;;;;;;7.70;1.33;;;18.40;98.80;;;;;;3559818;40;20123;-68
2021/05/16 09:04:36;;;;;;;6.03;1.25;;;18.80;98.90;;;;;;3556859;40;20042;-68
2021/05/16 09:07:03;;;;;;;8.82;2.17;;;18.40;96.90;;;;;;3558945;40;20041;-68
2021/05/16 09:09:39;;;;;;;3.08;1.20;;;18.10;98.20;;;;;;3559784;40;20044;-68
2021/05/16 09:12:08;;;;;;;6.78;1.23;;;18.70;97.60;;;;;;3559910;40;20576;-68
2021/05/16 09:14:43;;;;;;;7.15;2.50;;;19.30;96.40;;;;;;3557607;40;20037;-67
2021/05/16 09:17:32;;;;;;;8.00;2.70;;;19.70;95.40;;;;;;3559106;40;20131;-68
2021/05/16 09:20:06;;;;;;;8.07;1.33;;;19.80;93.90;;;;;;3560533;40;20071;-68
2021/05/16 09:22:46;;;;;;;3.90;1.15;;;19.20;96.00;;;;;;3560436;40;20139;-67
2021/05/16 09:25:16;;;;;;;4.32;1.40;;;17.90;98.70;;;;;;3561281;40;20130;-67
2021/05/16 09:27:44;;;;;;;10.93;1.55;;;17.70;98.50;;;;;;3559666;40;20083;-68
2021/05/16 09:30:20;;;;;;;7.97;1.90;;;17.10;99.20;;;;;;3559221;40;20038;-68
2021/05/16 09:32:46;;;;;;;;;;;17.00;99.80;;;;;;3563693;40;20060;-67
2021/05/16 09:35:12;;;;;;;10.82;3.20;;;17.00;99.90;;;;;;3560348;40;19991;-67
2021/05/16 09:38:04;;;;;;;8.70;2.08;;;16.80;99.90;;;;;;3560303;40;20055;-67
2021/05/16 09:40:41;;;;;;;6.70;1.85;;;16.60;99.90;;;;;;3562374;40;20041;-68
2021/05/16 09:43:09;;;;;;;9.52;2.75;;;16.30;99.90;;;;;;3559871;40;20824;-67
2021/05/16 09:46:05;;;;;;;6.82;1.90;;;16.50;99.90;;;;;;3560588;40;20041;-67
2021/05/16 09:48:32;;;;;;;7.10;2.08;;;;;;;;;;3560692;40;20041;-68
2021/05/16 09:51:07;;;;;;;7.32;1.90;;;16.80;99.90;;;;;;3560221;40;20490;-67
2021/05/16 09:53:44;;;;;;;8.07;2.05;;;17.30;99.90;;;;;;3560028;40;20037;-67
2021/05/16 09:56:33;;;;;;;11.98;1.83;;;18.30;99.90;;;;;;3551257;40;20103;-67
2021/05/16 09:59:01;;;;;;;8.27;1.48;;;19.50;97.30;;;;;;3561099;40;20817;-67
2021/05/16 10:01:28;;;;;;;8.90;1.67;;;19.30;94.10;;;;;;3558874;40;20065;-67
2021/05/16 10:03:58;;;;;;;13.30;2.03;;;18.90;95.00;;;;;;3560477;40;20031;-67
2021/05/16 10:06:25;;;;;;;7.35;1.40;;;18.80;94.30;;;;;;3560846;40;20041;-67
2021/05/16 10:08:51;;;;;;;7.43;1.38;;;18.80;94.10;;;;;;3560411;40;20304;-67
2021/05/16 10:11:25;;;;;;;6.43;1.70;;;19.20;94.80;;;;;;3559069;40;20060;-67
2021/05/16 10:14:04;;;;;;;8.15;1.50;;;19.30;93.50;;;;;;3560214;40;20032;-68
2021/05/16 10:16:41;;;;;;;7.60;1.42;;;18.70;93.60;;;;;;3558600;40;20126;-67
2021/05/16 10:19:12;;;;;;;7.80;1.20;;;18.50;94.90;;;;;;3560287;40;20126;-67
2021/05/16 10:21:38;;;;;;;10.23;1.50;;;19.30;92.70;;;;;;3558983;40;20042;-67
2021/05/16 10:24:12;;;;;;;4.43;1.80;;;19.50;91.50;;;;;;3560976;40;20138;-67
2021/05/16 10:26:39;;;;;;;4.37;1.07;;;19.60;93.10;;;;;;3558129;40;20041;-67
2021/05/16 10:29:17;;;;;;;3.70;1.17;;;20.10;92.50;;;;;;3561055;40;20127;-68
2021/05/16 10:31:50;;;;;;;6.25;1.20;;;19.80;91.60;;;;;;3558337;40;20045;-67
2021/05/16 10:34:25;;;;;;;4.90;1.17;;;19.70;91.70;;;;;;3559929;40;20219;-67
2021/05/16 10:36:55;;;;;;;7.00;0.93;;;19.90;88.00;;;;;;3559167;40;20127;-66
2021/05/16 10:39:47;;;;;;;6.28;1.00;;;19.90;87.60;;;;;;3560027;40;20030;-67
2021/05/16 10:42:21;;;;;;;4.50;1.30;;;19.90;93.30;;;;;;3560422;40;20061;-67
2021/05/16 10:45:06;;;;;;;3.92;1.13;;;19.60;85.70;;;;;;3560287;40;20065;-66
2021/05/16 10:50:30;;;;;;;8.50;1.75;;;19.40;89.70;;;;;;3559732;40;20569;-66
2021/05/16 10:52:56;;;;;;;5.43;0.90;;;;;;;;;;3560203;40;20054;-67
2021/05/16 10:55:36;;;;;;;7.63;1.00;;;19.60;87.50;;;;;;3560352;40;20036;-67
2021/05/16 10:58:04;;;;;;;6.95;0.93;;;19.70;83.10;;;;;;3559689;40;20030;-67
2021/05/16 11:00:42;;;;;;;3.88;0.90;;;19.30;92.80;;;;;;3559015;40;20026;-67
2021/05/16 11:03:11;;;;;;;3.33;0.93;;;18.40;90.90;;;;;;3557933;40;20041;-67
2021/05/16 11:05:40;;;;;;;3.58;0.88;;;18.90;90.00;;;;;;3559405;40;20103;-67
2021/05/16 11:08:11;;;;;;;5.95;1.20;;;18.30;91.70;;;;;;3558115;40;20033;-66
2021/05/16 11:10:40;;;;;;;6.50;1.42;;;18.70;96.50;;;;;;3559685;40;20041;-67
2021/05/16 11:13:14;;;;;;;5.72;0.80;;;17.40;95.80;;;;;;3559751;40;20053;-66
2021/05/16 11:15:50;;;;;;;6.82;1.00;;;;;;;;;;3558306;40;20144;-66
2021/05/16 11:18:18;;;;;;;5.38;1.33;;;15.50;99.90;;;;;;3558584;40;20048;-67
2021/05/16 11:20:58;;;;;;;5.68;1.02;;;14.90;99.90;;;;;;3559524;40;20041;-67
2021/05/16 11:23:31;;;;;;;3.50;1.25;;;14.70;99.90;;;;;;3558552;40;20048;-67
2021/05/16 11:26:00;;;;;;;6.68;1.20;;;14.90;99.90;;;;;;3558698;40;20644;-67
2021/05/16 11:28:29;;;;;;;5.28;1.02;;;15.50;99.90;;;;;;3559532;40;20080;-67
2021/05/16 11:30:56;;;;;;;6.18;1.10;;;15.40;99.90;;;;;;3559069;40;20041;-67
2021/05/16 11:33:33;;;;;;;3.65;1.20;;;15.70;99.90;;;;;;3558768;40;20037;-67
2021/05/16 11:36:06;;;;;;;3.60;0.90;;;16.40;99.90;;;;;;3559302;40;20049;-67
2021/05/16 11:38:34;;;;;;;4.47;0.77;;;17.40;99.90;;;;;;3559334;40;20104;-67
2021/05/16 11:41:00;;;;;;;2.88;0.80;;;17.60;99.90;;;;;;3559900;40;20477;-67
2021/05/16 11:43:33;;;;;;;2.75;0.88;;;17.90;99.90;;;;;;3559665;40;20037;-67
2021/05/16 11:46:00;;;;;;;2.03;0.80;;;18.10;99.80;;;;;;3559910;40;20064;-67
2021/05/16 11:48:36;;;;;;;2.67;1.00;;;17.70;99.60;;;;;;3558942;40;20069;-67
2021/05/16 11:51:08;;;;;;;2.45;0.93;;;16.40;99.90;;;;;;3560273;40;20142;-67
2021/05/16 11:53:34;;;;;;;1.75;0.80;;;16.00;99.90;;;;;;3559192;40;20138;-69
2021/05/16 11:56:02;;;;;;;13.98;5.28;;;15.60;99.90;;;;;;3558637;40;20250;-70
2021/05/16 11:58:30;;;;;;;3.33;1.10;;;15.00;99.90;;;;;;3559974;40;20034;-67
2021/05/16 12:00:57;;;;;;;5.43;1.13;;;15.20;99.90;;;;;;3559134;40;20081;-68
2021/05/16 12:03:23;;;;;;;7.13;1.90;;;15.30;99.90;;;;;;3559862;40;20033;-68
2021/05/16 12:05:49;;;;;;;5.90;1.73;;;15.90;99.90;;;;;;3560303;40;20112;-68
2021/05/16 12:08:23;;;;;;;6.53;2.17;;;16.10;99.90;;;;;;3559811;40;20045;-67
2021/05/16 12:11:14;;;;;;;5.72;1.10;;;16.30;99.90;;;;;;3553670;40;20048;-68
2021/05/16 12:13:40;;;;;;;8.18;1.95;;;17.60;99.90;;;;;;3559191;40;20033;-68
2021/05/16 12:16:18;;;;;;;4.30;1.17;;;17.20;99.90;;;;;;3560743;40;20123;-67
2021/05/16 12:18:46;;;;;;;1.85;0.70;;;17.70;99.90;;;;;;3561615;40;20034;-68
2021/05/16 12:21:12;;;;;;;1.98;0.77;;;18.10;99.90;;;;;;3559890;40;20026;-68
2021/05/16 12:23:39;;;;;;;2.45;0.90;;;19.00;97.70;;;;;;3562226;40;20123;-67
2021/05/16 12:26:06;;;;;;;3.30;0.80;;;18.70;97.00;;;;;;3560532;40;20041;-68
2021/05/16 12:28:32;;;;;;;1.05;0.55;;;18.50;97.30;;;;;;3558275;40;20148;-67
2021/05/16 12:30:59;;;;;;;3.47;0.77;;;18.20;98.20;;;;;;3559481;40;20057;-68
2021/05/16 12:33:25;;;;;;;2.13;0.70;;;18.30;98.00;;;;;;3559899;40;20519;-68
2021/05/16 12:35:51;;;;;;;4.90;0.93;;;19.90;98.50;;;;;;3561626;40;20038;-68
2021/05/16 12:38:17;;;;;;;4.00;0.98;;;18.10;96.20;;;;;;3558137;40;20045;-67
2021/05/16 12:40:44;;;;;;;6.22;2.22;;;18.40;95.70;;;;;;3559284;40;20073;-67
2021/05/16 12:43:13;;;;;;;3.92;1.00;;;18.60;96.90;;;;;;3558727;40;20030;-68
2021/05/16 12:45:39;;;;;;;3.30;0.85;;;19.40;95.90;;;;;;3559018;40;20033;-67
2021/05/16 12:48:07;;;;;;;3.42;0.90;;;19.50;94.60;;;;;;3558732;40;20052;-68
2021/05/16 12:50:48;;;;;;;3.08;1.02;;;21.70;89.40;;;;;;3560354;40;20034;-68
2021/05/16 12:53:29;;;;;;;3.78;0.80;;;22.20;81.20;;;;;;3562846;40;20029;-68
2021/05/16 12:56:27;;;;;;;3.38;0.70;;;23.50;73.80;;;;;;3557213;40;20038;-68
2021/05/16 12:59:06;;;;;;;2.67;0.70;;;22.50;70.50;;;;;;3559485;40;20048;-67